createdAt,value
2022-11-04T00:00:13.438Z,10.20
2022-11-04T00:02:40.401Z,10.20
2022-11-04T00:05:07.487Z,10.20
2022-11-04T00:07:52.728Z,10.30
2022-11-04T00:10:39.451Z,10.30
2022-11-04T00:13:06.477Z,10.30
2022-11-04T00:15:55.902Z,10.20
2022-11-04T00:18:22.796Z,10.20
2022-11-04T00:21:07.880Z,10.10
2022-11-04T00:23:53.340Z,10.10
2022-11-04T00:26:55.357Z,10.10
2022-11-04T00:29:22.292Z,10.10
2022-11-04T00:32:07.569Z,10.10
2022-11-04T00:34:34.599Z,10.10
2022-11-04T00:37:03.076Z,10.10
2022-11-04T00:39:30.412Z,10.10
2022-11-04T00:41:57.196Z,10.10
2022-11-04T00:44:24.028Z,10.10
2022-11-04T00:46:50.793Z,10.00
2022-11-04T00:49:17.587Z,10.10
2022-11-04T00:51:44.407Z,10.00
2022-11-04T00:54:11.318Z,10.00
2022-11-04T00:56:38.769Z,10.00
2022-11-04T00:59:09.110Z,10.00
2022-11-04T01:01:38.788Z,10.00
2022-11-04T01:04:05.713Z,10.00
2022-11-04T01:06:32.713Z,10.00
2022-11-04T01:09:02.573Z,10.00
2022-11-04T01:11:30.726Z,10.00
2022-11-04T01:13:58.344Z,10.00
2022-11-04T01:16:25.767Z,10.00
2022-11-04T01:18:52.717Z,9.90
2022-11-04T01:21:19.693Z,9.90
2022-11-04T01:23:47.155Z,9.90
2022-11-04T01:26:17.526Z,9.80
2022-11-04T01:28:44.958Z,9.80
2022-11-04T01:31:18.422Z,9.80
2022-11-04T01:33:45.439Z,9.80
2022-11-04T01:36:12.570Z,9.80
2022-11-04T01:38:39.841Z,9.70
2022-11-04T01:41:07.737Z,9.70
2022-11-04T01:43:59.824Z,9.70
2022-11-04T01:46:33.413Z,9.70
2022-11-04T01:49:13.142Z,9.60
2022-11-04T01:51:42.241Z,9.60
2022-11-04T01:54:11.196Z,9.60
2022-11-04T01:56:41.232Z,9.60
2022-11-04T01:59:34.261Z,9.60
2022-11-04T02:02:01.555Z,9.60
2022-11-04T02:04:30.264Z,9.50
2022-11-04T02:06:59.947Z,9.50
2022-11-04T02:09:32.075Z,9.50
2022-11-04T02:12:18.328Z,9.40
2022-11-04T02:14:47.966Z,9.40
2022-11-04T02:17:44.735Z,9.40
2022-11-04T02:20:20.859Z,9.40
2022-11-04T02:23:06.009Z,9.40
2022-11-04T02:25:35.917Z,9.40
2022-11-04T02:28:05.836Z,9.40
2022-11-04T02:30:53.323Z,9.40
2022-11-04T02:33:32.588Z,9.40
2022-11-04T02:36:05.951Z,9.40
2022-11-04T02:38:33.000Z,9.40
2022-11-04T02:41:33.846Z,9.40
2022-11-04T02:44:21.335Z,9.40
2022-11-04T02:47:00.165Z,9.30
2022-11-04T02:49:38.527Z,9.40
2022-11-04T02:52:07.098Z,9.30
2022-11-04T02:54:56.909Z,9.30
2022-11-04T02:57:30.396Z,9.30
2022-11-04T03:00:20.696Z,9.30
2022-11-04T03:02:50.828Z,9.30
2022-11-04T03:05:23.175Z,9.30
2022-11-04T03:07:53.420Z,9.30
2022-11-04T03:10:29.652Z,9.30
2022-11-04T03:13:05.765Z,9.30
2022-11-04T03:15:35.384Z,9.20
2022-11-04T03:18:34.053Z,9.20
2022-11-04T03:21:04.552Z,9.20
2022-11-04T03:23:32.021Z,9.10
2022-11-04T03:26:33.589Z,9.10
2022-11-04T03:29:03.508Z,9.10
2022-11-04T03:31:43.922Z,9.10
2022-11-04T03:34:11.281Z,9.00
2022-11-04T03:36:38.325Z,9.00
2022-11-04T03:39:05.285Z,9.00
2022-11-04T03:41:42.673Z,9.00
2022-11-04T03:44:09.558Z,9.00
2022-11-04T03:46:36.405Z,8.90
2022-11-04T03:49:04.543Z,9.00
2022-11-04T03:51:31.364Z,9.00
2022-11-04T03:53:58.852Z,8.90
2022-11-04T03:56:52.774Z,8.90
2022-11-04T03:59:22.591Z,8.90
2022-11-04T04:02:02.464Z,8.90
2022-11-04T04:04:30.758Z,8.90
2022-11-04T04:07:20.145Z,8.90
2022-11-04T04:10:32.333Z,8.80
2022-11-04T04:13:03.689Z,8.80
2022-11-04T04:15:42.381Z,8.80
2022-11-04T04:18:13.218Z,8.80
2022-11-04T04:20:42.411Z,8.80
2022-11-04T04:23:32.264Z,8.70
2022-11-04T04:26:21.206Z,8.70
2022-11-04T04:28:50.305Z,8.70
2022-11-04T04:31:38.619Z,8.70
2022-11-04T04:34:06.333Z,8.70
2022-11-04T04:36:42.140Z,8.70
2022-11-04T04:39:30.570Z,8.80
2022-11-04T04:42:17.216Z,8.70
2022-11-04T04:45:03.571Z,8.80
2022-11-04T04:47:39.548Z,8.80
2022-11-04T04:50:07.502Z,8.80
2022-11-04T04:52:38.944Z,8.80
2022-11-04T04:55:06.371Z,8.70
2022-11-04T04:57:33.247Z,8.70
2022-11-04T05:00:00.010Z,8.70
2022-11-04T05:02:27.185Z,8.70
2022-11-04T05:04:54.509Z,8.70
2022-11-04T05:07:21.309Z,8.70
2022-11-04T05:09:48.098Z,8.70
2022-11-04T05:12:15.326Z,8.60
2022-11-04T05:14:42.096Z,8.70
2022-11-04T05:17:09.070Z,8.60
2022-11-04T05:19:35.849Z,8.60
2022-11-04T05:22:02.740Z,8.60
2022-11-04T05:24:29.542Z,8.50
2022-11-04T05:26:56.518Z,8.50
2022-11-04T05:29:23.332Z,8.50
2022-11-04T05:31:50.174Z,8.40
2022-11-04T05:34:17.210Z,8.40
2022-11-04T05:36:44.083Z,8.40
2022-11-04T05:39:13.492Z,8.40
2022-11-04T05:41:40.322Z,8.30
2022-11-04T05:44:09.477Z,8.30
2022-11-04T05:46:36.581Z,8.30
2022-11-04T05:49:03.796Z,8.30
2022-11-04T05:51:30.761Z,8.20
2022-11-04T05:53:57.554Z,8.20
2022-11-04T05:56:24.520Z,8.20
2022-11-04T05:58:51.391Z,8.10
2022-11-04T06:01:31.129Z,8.10
2022-11-04T06:03:59.341Z,8.10
2022-11-04T06:06:28.408Z,8.10
2022-11-04T06:08:55.557Z,8.00
2022-11-04T06:11:23.864Z,8.00
2022-11-04T06:13:50.875Z,8.00
2022-11-04T06:16:17.812Z,8.00
2022-11-04T06:18:44.613Z,8.00
2022-11-04T06:21:22.484Z,8.00
2022-11-04T06:23:49.529Z,8.00
2022-11-04T06:26:18.223Z,7.90
2022-11-04T06:28:45.308Z,8.00
2022-11-04T06:31:14.109Z,7.90
2022-11-04T06:33:41.271Z,8.00
2022-11-04T06:36:10.648Z,7.90
2022-11-04T06:38:38.266Z,7.90
2022-11-04T06:41:07.223Z,7.90
2022-11-04T06:43:34.173Z,8.00
2022-11-04T06:46:02.743Z,7.90
2022-11-04T06:48:33.604Z,7.90
2022-11-04T06:51:01.402Z,7.90
2022-11-04T06:53:29.964Z,7.90
2022-11-04T06:56:02.953Z,7.90
2022-11-04T06:58:29.836Z,8.00
2022-11-04T07:00:56.762Z,7.90
2022-11-04T07:03:23.699Z,7.90
2022-11-04T07:05:50.472Z,7.90
2022-11-04T07:08:17.257Z,7.90
2022-11-04T07:10:44.222Z,7.90
2022-11-04T07:13:11.070Z,7.80
2022-11-04T07:15:41.074Z,7.80
2022-11-04T07:18:08.239Z,7.80
2022-11-04T07:20:36.816Z,7.80
2022-11-04T07:23:03.652Z,7.80
2022-11-04T07:25:30.520Z,7.80
2022-11-04T07:28:01.082Z,7.70
2022-11-04T07:30:29.395Z,7.80
2022-11-04T07:32:56.322Z,7.70
2022-11-04T07:35:23.117Z,7.80
2022-11-04T07:37:49.899Z,7.70
2022-11-04T07:40:16.858Z,7.70
2022-11-04T07:42:43.794Z,7.70
2022-11-04T07:45:11.165Z,7.70
2022-11-04T07:47:38.042Z,7.80
2022-11-04T07:50:10.687Z,7.80
2022-11-04T07:52:38.144Z,7.80
2022-11-04T07:55:05.583Z,7.80
2022-11-04T07:57:32.644Z,7.80
2022-11-04T07:59:59.679Z,7.80
2022-11-04T08:02:29.944Z,7.80
2022-11-04T08:05:00.895Z,7.80
2022-11-04T08:07:27.736Z,7.80
2022-11-04T08:09:54.575Z,7.80
2022-11-04T08:12:23.862Z,7.80
2022-11-04T08:14:51.444Z,7.90
2022-11-04T08:17:18.229Z,7.90
2022-11-04T08:19:45.144Z,7.80
2022-11-04T08:22:11.949Z,7.80
2022-11-04T08:24:38.789Z,7.80
2022-11-04T08:27:07.769Z,7.80
2022-11-04T08:29:35.194Z,7.90
2022-11-04T08:32:02.264Z,7.80
2022-11-04T08:34:29.209Z,7.80
2022-11-04T08:36:57.654Z,7.80
2022-11-04T08:39:24.830Z,7.80
2022-11-04T08:41:53.568Z,7.80
2022-11-04T08:44:21.622Z,7.90
2022-11-04T08:46:48.835Z,7.80
2022-11-04T08:49:20.607Z,7.80
2022-11-04T08:51:56.271Z,7.80
2022-11-04T08:54:24.854Z,7.80
2022-11-04T08:56:51.835Z,7.80
2022-11-04T08:59:18.792Z,7.80
2022-11-04T09:01:45.967Z,7.90
2022-11-04T09:04:13.742Z,7.90
2022-11-04T09:06:42.761Z,7.90
2022-11-04T09:09:12.952Z,8.00
2022-11-04T09:11:42.231Z,8.00
2022-11-04T09:14:10.079Z,8.00
2022-11-04T09:16:37.848Z,8.10
2022-11-04T09:19:05.107Z,8.10
2022-11-04T09:21:31.916Z,8.10
2022-11-04T09:23:58.851Z,8.20
2022-11-04T09:26:26.223Z,8.20
2022-11-04T09:28:58.120Z,8.20
2022-11-04T09:31:27.093Z,8.30
2022-11-04T09:33:57.235Z,8.30
2022-11-04T09:36:24.602Z,8.30
2022-11-04T09:38:52.054Z,8.40
2022-11-04T09:41:37.625Z,8.50
2022-11-04T09:44:10.671Z,8.50
2022-11-04T09:46:38.787Z,8.60
2022-11-04T09:49:09.532Z,8.60
2022-11-04T09:51:53.661Z,8.60
2022-11-04T09:54:22.991Z,8.60
2022-11-04T09:56:53.103Z,8.60
2022-11-04T09:59:32.081Z,8.50
2022-11-04T10:02:22.282Z,8.60
2022-11-04T10:05:12.847Z,8.60
2022-11-04T10:07:57.302Z,8.60
2022-11-04T10:10:28.644Z,8.70
2022-11-04T10:13:02.111Z,8.70
2022-11-04T10:15:34.945Z,8.60
2022-11-04T10:18:40.522Z,8.70
2022-11-04T10:21:31.547Z,8.70
2022-11-04T10:24:07.666Z,8.60
2022-11-04T10:26:34.461Z,8.70
2022-11-04T10:29:33.980Z,8.70
2022-11-04T10:32:06.993Z,8.80
2022-11-04T10:34:48.638Z,8.80
2022-11-04T10:37:15.597Z,8.90
2022-11-04T10:39:47.277Z,9.00
2022-11-04T10:42:18.482Z,9.00
2022-11-04T10:44:47.103Z,9.00
2022-11-04T10:47:28.454Z,9.10
2022-11-04T10:50:29.289Z,9.10
2022-11-04T10:53:23.691Z,9.20
2022-11-04T10:56:21.843Z,9.30
2022-11-04T10:58:49.065Z,9.30
2022-11-04T11:01:35.239Z,9.40
2022-11-04T11:04:07.392Z,9.40
2022-11-04T11:06:36.003Z,9.50
2022-11-04T11:09:14.143Z,9.50
2022-11-04T11:11:47.883Z,9.50
2022-11-04T11:14:31.025Z,9.60
2022-11-04T11:17:19.048Z,9.70
2022-11-04T11:20:05.322Z,9.60
2022-11-04T11:22:39.693Z,9.60
2022-11-04T11:25:32.833Z,9.60
2022-11-04T11:28:09.302Z,9.60
2022-11-04T11:30:46.409Z,9.50
2022-11-04T11:33:18.385Z,9.60
2022-11-04T11:35:53.270Z,9.50
2022-11-04T11:38:30.869Z,9.50
2022-11-04T11:41:24.346Z,9.50
2022-11-04T11:43:53.350Z,9.60
2022-11-04T11:46:29.838Z,9.70
2022-11-04T11:49:01.661Z,9.70
2022-11-04T11:51:39.458Z,9.50
2022-11-04T11:54:30.358Z,9.50
2022-11-04T11:57:18.552Z,9.60
2022-11-04T12:03:13.491Z,9.70
2022-11-04T12:12:08.604Z,9.70
2022-11-04T12:14:50.373Z,9.80
2022-11-04T12:17:58.690Z,9.70
2022-11-04T12:21:01.210Z,9.80
2022-11-04T12:23:31.048Z,9.80
2022-11-04T12:26:26.914Z,9.80
2022-11-04T12:29:21.612Z,9.70
2022-11-04T12:31:55.622Z,9.80
2022-11-04T12:34:28.460Z,9.70
2022-11-04T12:37:13.913Z,9.70
2022-11-04T12:40:08.644Z,9.80
2022-11-04T12:42:52.758Z,9.80
2022-11-04T12:46:01.388Z,9.80
2022-11-04T12:49:07.366Z,9.80
2022-11-04T12:51:46.538Z,9.80
2022-11-04T12:54:27.137Z,9.80
2022-11-04T12:57:21.659Z,9.80
2022-11-04T13:00:13.941Z,9.80
2022-11-04T13:02:54.995Z,9.80
2022-11-04T13:05:21.923Z,9.80
2022-11-04T13:08:38.716Z,9.90
2022-11-04T13:11:22.757Z,9.90
2022-11-04T13:13:51.626Z,9.90
2022-11-04T13:16:18.746Z,9.80
2022-11-04T13:18:47.994Z,9.90
2022-11-04T13:21:27.775Z,9.90
2022-11-04T13:24:06.318Z,9.90
2022-11-04T13:26:33.500Z,9.90
2022-11-04T13:29:12.217Z,9.90
2022-11-04T13:32:04.669Z,9.90
2022-11-04T13:34:50.200Z,9.90
2022-11-04T13:37:28.394Z,9.90
2022-11-04T13:40:11.415Z,9.90
2022-11-04T13:42:53.368Z,9.90
2022-11-04T13:45:20.664Z,10.00
2022-11-04T13:47:52.752Z,9.90
2022-11-04T13:50:31.580Z,9.90
2022-11-04T13:52:58.825Z,9.90
2022-11-04T13:55:25.722Z,9.90
2022-11-04T13:58:01.346Z,9.90
2022-11-04T14:00:37.735Z,9.80
2022-11-04T14:03:22.960Z,9.80
2022-11-04T14:06:04.164Z,9.80
2022-11-04T14:08:31.215Z,9.80
2022-11-04T14:11:02.210Z,9.80
2022-11-04T14:13:34.130Z,9.80
2022-11-04T14:16:03.965Z,9.80
2022-11-04T14:18:37.938Z,9.80
2022-11-04T14:21:26.080Z,9.80
2022-11-04T14:24:00.340Z,9.80
2022-11-04T14:26:48.600Z,9.70
2022-11-04T14:29:23.176Z,9.70
2022-11-04T14:31:55.839Z,9.70
2022-11-04T14:34:35.586Z,9.80
2022-11-04T14:37:22.397Z,9.80
2022-11-04T14:39:59.225Z,9.70
2022-11-04T14:42:48.128Z,9.70
2022-11-04T14:45:39.688Z,9.60
2022-11-04T14:48:18.342Z,9.50
2022-11-04T14:50:49.782Z,9.50
2022-11-04T14:53:28.786Z,9.40
2022-11-04T14:56:26.942Z,9.40
2022-11-04T14:59:00.845Z,9.30
2022-11-04T15:01:34.661Z,9.20
2022-11-04T15:04:32.206Z,9.10
2022-11-04T15:07:01.519Z,9.10
2022-11-04T15:09:34.845Z,9.10
2022-11-04T15:12:29.449Z,9.00
2022-11-04T15:14:57.002Z,9.00
2022-11-04T15:17:28.507Z,8.90
2022-11-04T15:19:58.054Z,8.90
2022-11-04T15:22:25.182Z,8.80
2022-11-04T15:24:53.667Z,8.80
2022-11-04T15:27:27.852Z,8.70
2022-11-04T15:30:07.107Z,8.70
2022-11-04T15:32:33.974Z,8.60
2022-11-04T15:35:01.686Z,8.50
2022-11-04T15:37:30.215Z,8.50
2022-11-04T15:39:58.382Z,8.40
2022-11-04T15:42:43.104Z,8.40
2022-11-04T15:45:34.880Z,8.30
2022-11-04T15:48:30.871Z,8.20
2022-11-04T15:51:32.928Z,8.20
2022-11-04T15:54:07.642Z,8.10
2022-11-04T15:56:52.736Z,8.00
2022-11-04T15:59:23.499Z,7.90
2022-11-04T16:01:53.151Z,7.90
2022-11-04T16:04:24.194Z,7.90
2022-11-04T16:07:09.688Z,7.80
2022-11-04T16:09:54.076Z,7.80
2022-11-04T16:12:24.036Z,7.80
2022-11-04T16:14:52.580Z,7.70
2022-11-04T16:17:20.356Z,7.70
2022-11-04T16:19:54.600Z,7.60
2022-11-04T16:22:32.453Z,7.60
2022-11-04T16:25:02.151Z,7.60
2022-11-04T16:27:32.089Z,7.60
2022-11-04T16:30:20.518Z,7.60
2022-11-04T16:32:54.241Z,7.60
2022-11-04T16:35:26.568Z,7.50
2022-11-04T16:37:56.003Z,7.50
2022-11-04T16:42:57.788Z,7.40
2022-11-04T16:45:26.526Z,7.50
2022-11-04T16:47:54.627Z,7.50
2022-11-04T16:50:21.882Z,7.40
2022-11-04T16:52:48.920Z,7.40
2022-11-04T16:55:16.011Z,7.40
2022-11-04T16:57:44.165Z,7.40
2022-11-04T17:00:20.041Z,7.40
2022-11-04T17:02:46.842Z,7.30
2022-11-04T17:05:14.058Z,7.30
2022-11-04T17:07:52.886Z,7.20
2022-11-04T17:10:28.085Z,7.20
2022-11-04T17:12:55.243Z,7.20
2022-11-04T17:15:22.667Z,7.20
2022-11-04T17:17:49.775Z,7.20
2022-11-04T17:20:18.489Z,7.10
2022-11-04T17:22:46.874Z,7.10
2022-11-04T17:25:18.110Z,7.00
2022-11-04T17:27:45.257Z,7.00
2022-11-04T17:30:14.127Z,6.90
2022-11-04T17:32:41.979Z,6.90
2022-11-04T17:35:09.525Z,6.90
2022-11-04T17:37:36.418Z,6.90
2022-11-04T17:40:03.943Z,6.90
2022-11-04T17:42:49.230Z,6.80
2022-11-04T17:45:16.196Z,6.80
2022-11-04T17:47:43.155Z,6.70
2022-11-04T17:50:10.271Z,6.70
2022-11-04T17:52:38.180Z,6.70
2022-11-04T17:55:05.728Z,6.60
2022-11-04T17:57:35.027Z,6.60
2022-11-04T18:00:05.510Z,6.50
2022-11-04T18:02:33.176Z,6.40
2022-11-04T18:05:01.823Z,6.40
2022-11-04T18:07:29.572Z,6.40
2022-11-04T18:09:57.072Z,6.40
2022-11-04T18:12:41.220Z,6.40
2022-11-04T18:15:14.377Z,6.40
2022-11-04T18:17:42.884Z,6.20
2022-11-04T18:20:13.885Z,6.20
2022-11-04T18:22:43.567Z,6.20
2022-11-04T18:25:11.650Z,6.10
2022-11-04T18:27:38.513Z,6.10
2022-11-04T18:30:05.938Z,6.10
2022-11-04T18:32:33.133Z,6.00
2022-11-04T18:35:00.281Z,6.00
2022-11-04T18:37:28.562Z,6.00
2022-11-04T18:39:55.511Z,6.00
2022-11-04T18:42:23.313Z,6.00
2022-11-04T18:44:50.320Z,5.90
2022-11-04T18:47:17.872Z,5.90
2022-11-04T18:49:44.915Z,5.80
2022-11-04T18:52:11.817Z,5.70
2022-11-04T18:54:38.814Z,5.70
2022-11-04T18:57:06.075Z,5.70
2022-11-04T18:59:32.907Z,5.70
2022-11-04T19:01:59.839Z,5.70
2022-11-04T19:04:26.783Z,5.70
2022-11-04T19:06:53.609Z,5.70
2022-11-04T19:12:27.903Z,5.80
2022-11-04T19:14:54.789Z,5.80
2022-11-04T19:17:22.360Z,5.70
2022-11-04T19:19:49.344Z,5.70
2022-11-04T19:22:16.104Z,5.70
2022-11-04T19:24:42.943Z,5.70
2022-11-04T19:27:09.763Z,5.70
2022-11-04T19:29:36.559Z,5.70
2022-11-04T19:32:03.691Z,5.70
2022-11-04T19:34:30.632Z,5.70
2022-11-04T19:36:57.432Z,5.70
2022-11-04T19:39:24.947Z,5.70
2022-11-04T19:42:10.308Z,5.70
2022-11-04T19:44:37.084Z,5.80
2022-11-04T19:47:03.911Z,5.80
2022-11-04T19:49:31.679Z,5.70
2022-11-04T19:51:59.901Z,5.80
2022-11-04T19:54:28.279Z,5.80
2022-11-04T19:56:55.166Z,5.80
2022-11-04T19:59:22.676Z,5.70
2022-11-04T20:01:50.521Z,5.70
2022-11-04T20:04:17.653Z,5.70
2022-11-04T20:06:44.498Z,5.80
2022-11-04T20:09:11.311Z,5.70
2022-11-04T20:11:59.463Z,5.70
2022-11-04T20:14:27.708Z,5.70
2022-11-04T20:16:54.578Z,5.70
2022-11-04T20:19:23.858Z,5.70
2022-11-04T20:21:51.043Z,5.70
2022-11-04T20:24:18.397Z,5.70
2022-11-04T20:26:47.545Z,5.70
2022-11-04T20:29:17.784Z,5.60
2022-11-04T20:31:44.923Z,5.60
2022-11-04T20:34:13.857Z,5.50
2022-11-04T20:36:41.498Z,5.50
2022-11-04T20:39:14.417Z,5.50
2022-11-04T20:41:42.241Z,5.40
2022-11-04T20:44:13.844Z,5.40
2022-11-04T20:46:41.674Z,5.40
2022-11-04T20:49:08.731Z,5.40
2022-11-04T20:51:39.054Z,5.40
2022-11-04T20:54:07.216Z,5.50
2022-11-04T20:56:36.915Z,5.50
2022-11-04T20:59:05.076Z,5.50
2022-11-04T21:01:37.552Z,5.50
2022-11-04T21:04:18.261Z,5.50
2022-11-04T21:06:46.083Z,5.40
2022-11-04T21:09:15.028Z,5.40
2022-11-04T21:11:42.957Z,5.40
2022-11-04T21:14:14.383Z,5.30
2022-11-04T21:16:41.511Z,5.20
2022-11-04T21:19:08.680Z,5.20
2022-11-04T21:21:35.625Z,5.10
2022-11-04T21:24:05.947Z,5.00
2022-11-04T21:26:35.481Z,5.00
2022-11-04T21:29:06.372Z,4.90
2022-11-04T21:31:34.883Z,4.90
2022-11-04T21:34:02.102Z,4.90
2022-11-04T21:36:29.417Z,4.80
2022-11-04T21:38:56.666Z,4.80
2022-11-04T21:41:26.388Z,4.80
2022-11-04T21:43:57.795Z,4.70
2022-11-04T21:46:25.525Z,4.70
2022-11-04T21:48:52.583Z,4.60
2022-11-04T21:51:22.483Z,4.60
2022-11-04T21:53:49.654Z,4.60
2022-11-04T21:56:19.657Z,4.50
2022-11-04T21:58:46.875Z,4.50
2022-11-04T22:01:17.060Z,4.50
2022-11-04T22:03:44.804Z,4.50
2022-11-04T22:06:14.604Z,4.40
2022-11-04T22:08:53.792Z,4.40
2022-11-04T22:11:26.996Z,4.40
2022-11-04T22:13:58.804Z,4.40
2022-11-04T22:16:28.039Z,4.30
2022-11-04T22:18:56.711Z,4.30
2022-11-04T22:21:25.297Z,4.30
2022-11-04T22:23:52.746Z,4.20
2022-11-04T22:26:22.257Z,4.20
2022-11-04T22:28:49.255Z,4.20
2022-11-04T22:31:16.053Z,4.20
2022-11-04T22:33:43.233Z,4.20
2022-11-04T22:36:11.449Z,4.20
2022-11-04T22:38:39.315Z,4.20
2022-11-04T22:41:07.031Z,4.20
2022-11-04T22:43:33.993Z,4.20
2022-11-04T22:48:37.073Z,4.20
2022-11-04T22:51:04.590Z,4.30
2022-11-04T22:53:31.547Z,4.30
2022-11-04T22:56:02.731Z,4.30
2022-11-04T22:58:30.071Z,4.40
2022-11-04T23:00:59.497Z,4.40
2022-11-04T23:03:26.996Z,4.40
2022-11-04T23:05:59.069Z,4.40
2022-11-04T23:08:27.113Z,4.50
2022-11-04T23:11:19.069Z,4.50
2022-11-04T23:14:13.205Z,4.60
2022-11-04T23:17:07.499Z,4.60
2022-11-04T23:19:34.437Z,4.60
2022-11-04T23:22:20.025Z,4.60
2022-11-04T23:25:05.816Z,4.70
2022-11-04T23:27:52.686Z,4.70
2022-11-04T23:30:22.269Z,4.70
2022-11-04T23:32:52.392Z,4.80
2022-11-04T23:35:38.613Z,4.80
2022-11-04T23:38:05.913Z,4.90
2022-11-04T23:40:33.489Z,4.90
2022-11-04T23:43:00.687Z,4.90
2022-11-04T23:45:46.179Z,5.00
2022-11-04T23:48:33.210Z,5.00
2022-11-04T23:51:20.128Z,5.00
2022-11-04T23:54:05.825Z,5.00
2022-11-04T23:56:51.414Z,5.00
2022-11-04T23:59:37.484Z,5.10
